createdAt,value
2022-10-18T00:00:30.813Z,98.55
2022-10-18T00:03:02.060Z,98.98
2022-10-18T00:05:33.850Z,98.45
2022-10-18T00:08:05.514Z,98.42
2022-10-18T00:10:36.794Z,98.75
2022-10-18T00:13:08.275Z,98.44
2022-10-18T00:15:39.654Z,98.31
2022-10-18T00:18:10.894Z,98.23
2022-10-18T00:20:42.230Z,98.45
2022-10-18T00:23:13.614Z,98.16
2022-10-18T00:25:44.872Z,98.02
2022-10-18T00:28:16.117Z,98.40
2022-10-18T00:30:47.590Z,98.04
2022-10-18T00:33:18.901Z,98.17
2022-10-18T00:35:50.173Z,97.86
2022-10-18T00:38:21.414Z,98.27
2022-10-18T00:40:52.683Z,98.26
2022-10-18T00:43:23.983Z,98.65
2022-10-18T00:45:55.365Z,98.31
2022-10-18T00:48:26.676Z,98.23
2022-10-18T00:50:57.980Z,98.96
2022-10-18T00:53:29.286Z,98.22
2022-10-18T00:56:00.547Z,98.60
2022-10-18T00:58:31.958Z,98.54
2022-10-18T01:01:03.379Z,98.14
2022-10-18T01:03:36.181Z,98.17
2022-10-18T01:06:08.448Z,98.50
2022-10-18T01:09:09.822Z,98.20
2022-10-18T01:12:16.382Z,98.36
2022-10-18T01:15:11.259Z,98.77
2022-10-18T01:17:54.982Z,98.84
2022-10-18T01:20:42.413Z,98.71
2022-10-18T01:23:22.766Z,98.43
2022-10-18T01:26:02.467Z,98.32
2022-10-18T01:28:52.621Z,98.35
2022-10-18T01:31:31.877Z,98.53
2022-10-18T01:34:07.243Z,98.14
2022-10-18T01:36:46.817Z,98.53
2022-10-18T01:39:28.737Z,98.54
2022-10-18T01:42:03.276Z,98.48
2022-10-18T01:44:35.373Z,98.20
2022-10-18T01:47:10.722Z,98.53
2022-10-18T01:49:42.366Z,98.15
2022-10-18T01:52:15.462Z,98.52
2022-10-18T01:54:50.944Z,98.44
2022-10-18T01:57:39.250Z,98.75
2022-10-18T02:00:23.929Z,98.29
2022-10-18T02:03:04.817Z,98.65
2022-10-18T02:06:01.783Z,98.95
2022-10-18T02:08:50.089Z,98.35
2022-10-18T02:11:21.894Z,98.44
2022-10-18T02:13:57.818Z,98.77
2022-10-18T02:16:35.929Z,98.50
2022-10-18T02:19:14.422Z,98.54
2022-10-18T02:21:48.282Z,98.60
2022-10-18T02:24:23.470Z,98.17
2022-10-18T02:26:54.733Z,98.30
2022-10-18T02:29:26.057Z,98.78
2022-10-18T02:32:15.461Z,98.43
2022-10-18T02:34:54.438Z,98.57
2022-10-18T02:37:30.646Z,98.92
2022-10-18T02:40:03.872Z,98.55
2022-10-18T02:42:37.514Z,98.74
2022-10-18T02:45:08.910Z,98.73
2022-10-18T02:47:40.355Z,98.54
2022-10-18T02:50:12.128Z,98.66
2022-10-18T02:52:43.556Z,98.42
2022-10-18T02:55:15.402Z,98.49
2022-10-18T02:57:46.761Z,98.49
2022-10-18T03:00:18.167Z,98.57
2022-10-18T03:02:49.476Z,98.83
2022-10-18T03:05:20.759Z,99.02
2022-10-18T03:07:52.121Z,98.78
2022-10-18T03:10:23.366Z,98.91
2022-10-18T03:12:54.642Z,98.88
2022-10-18T03:15:25.939Z,98.40
2022-10-18T03:17:57.190Z,98.44
2022-10-18T03:20:28.588Z,98.60
2022-10-18T03:23:00.003Z,98.60
2022-10-18T03:25:31.258Z,98.47
2022-10-18T03:28:02.520Z,98.11
2022-10-18T03:30:34.021Z,98.13
2022-10-18T03:33:06.127Z,98.64
2022-10-18T03:35:37.389Z,98.30
2022-10-18T03:38:08.723Z,98.53
2022-10-18T03:40:40.143Z,98.89
2022-10-18T03:43:11.403Z,98.68
2022-10-18T03:45:43.035Z,98.29
2022-10-18T03:48:14.456Z,98.68
2022-10-18T03:50:45.845Z,99.01
2022-10-18T03:53:17.096Z,98.62
2022-10-18T03:55:55.690Z,98.26
2022-10-18T03:58:27.054Z,98.34
2022-10-18T04:00:58.345Z,98.53
2022-10-18T04:03:29.721Z,98.52
2022-10-18T04:06:03.317Z,98.27
2022-10-18T04:08:34.567Z,98.66
2022-10-18T04:11:09.775Z,98.46
2022-10-18T04:13:41.150Z,98.24
2022-10-18T04:16:12.490Z,98.61
2022-10-18T04:18:43.735Z,98.51
2022-10-18T04:21:15.032Z,97.88
2022-10-18T04:23:50.570Z,98.11
2022-10-18T04:26:22.750Z,98.23
2022-10-18T04:28:54.378Z,98.12
2022-10-18T04:31:25.783Z,97.86
2022-10-18T04:33:57.075Z,98.62
2022-10-18T04:36:28.325Z,98.03
2022-10-18T04:38:59.614Z,97.96
2022-10-18T04:41:31.020Z,98.40
2022-10-18T04:44:02.259Z,97.73
2022-10-18T04:46:33.908Z,98.16
2022-10-18T04:49:05.144Z,98.11
2022-10-18T04:51:36.675Z,98.05
2022-10-18T04:54:07.922Z,97.64
2022-10-18T04:56:39.222Z,98.08
2022-10-18T04:59:10.534Z,98.45
2022-10-18T05:01:41.956Z,98.41
2022-10-18T05:04:13.240Z,98.19
2022-10-18T05:06:44.674Z,98.34
2022-10-18T05:09:16.001Z,98.19
2022-10-18T05:11:47.274Z,97.66
2022-10-18T05:14:18.671Z,97.82
2022-10-18T05:16:49.935Z,97.73
2022-10-18T05:19:21.455Z,97.96
2022-10-18T05:21:52.774Z,97.63
2022-10-18T05:24:26.962Z,97.43
2022-10-18T05:26:59.189Z,97.97
2022-10-18T05:29:30.450Z,97.92
2022-10-18T05:32:01.705Z,98.12
2022-10-18T05:34:33.065Z,98.19
2022-10-18T05:37:04.335Z,97.82
2022-10-18T05:39:37.294Z,97.75
2022-10-18T05:42:08.798Z,97.67
2022-10-18T05:44:40.047Z,97.80
2022-10-18T05:47:11.291Z,97.77
2022-10-18T05:49:42.576Z,97.72
2022-10-18T05:52:13.912Z,97.84
2022-10-18T05:54:45.161Z,98.30
2022-10-18T05:57:16.415Z,97.58
2022-10-18T05:59:47.658Z,97.48
2022-10-18T06:02:19.023Z,97.45
2022-10-18T06:04:50.313Z,97.53
2022-10-18T06:07:21.564Z,97.60
2022-10-18T06:09:52.820Z,97.28
2022-10-18T06:12:24.100Z,97.90
2022-10-18T06:14:55.382Z,97.67
2022-10-18T06:17:28.978Z,98.08
2022-10-18T06:20:04.351Z,98.02
2022-10-18T06:22:35.816Z,98.00
2022-10-18T06:25:07.313Z,97.87
2022-10-18T06:27:38.565Z,97.35
2022-10-18T06:30:10.206Z,97.39
2022-10-18T06:32:41.571Z,97.60
2022-10-18T06:35:12.898Z,97.83
2022-10-18T06:37:44.234Z,97.22
2022-10-18T06:40:15.618Z,97.43
2022-10-18T06:42:55.293Z,97.34
2022-10-18T06:45:37.166Z,97.36
2022-10-18T06:48:08.556Z,97.54
2022-10-18T06:50:39.910Z,97.27
2022-10-18T06:53:11.182Z,97.03
2022-10-18T06:55:42.456Z,97.45
2022-10-18T06:58:13.738Z,97.32
2022-10-18T07:00:45.545Z,97.45
2022-10-18T07:03:16.936Z,97.19
2022-10-18T07:05:49.358Z,97.73
2022-10-18T07:08:20.645Z,98.07
2022-10-18T07:10:53.170Z,97.45
2022-10-18T07:13:32.352Z,97.43
2022-10-18T07:16:05.940Z,96.79
2022-10-18T07:18:40.036Z,97.09
2022-10-18T07:21:15.957Z,96.97
2022-10-18T07:23:47.993Z,97.14
2022-10-18T07:26:25.093Z,97.13
2022-10-18T07:29:07.661Z,97.11
2022-10-18T07:31:40.713Z,97.54
2022-10-18T07:34:13.120Z,97.96
2022-10-18T07:36:44.381Z,97.73
2022-10-18T07:39:15.666Z,97.96
2022-10-18T07:41:47.058Z,98.07
2022-10-18T07:44:18.343Z,97.63
2022-10-18T07:46:49.586Z,97.86
2022-10-18T07:49:21.014Z,97.62
2022-10-18T07:51:52.273Z,97.42
2022-10-18T07:54:23.574Z,97.95
2022-10-18T07:56:54.892Z,97.49
2022-10-18T07:59:26.194Z,97.46
2022-10-18T08:01:57.480Z,97.41
2022-10-18T08:04:28.788Z,97.78
2022-10-18T08:07:00.133Z,97.49
2022-10-18T08:09:31.402Z,97.68
2022-10-18T08:12:02.659Z,97.38
2022-10-18T08:14:33.950Z,97.79
2022-10-18T08:17:05.207Z,97.48
2022-10-18T08:19:36.484Z,97.24
2022-10-18T08:22:07.729Z,96.72
2022-10-18T08:24:39.030Z,96.74
2022-10-18T08:27:10.277Z,96.91
2022-10-18T08:29:41.755Z,96.63
2022-10-18T08:32:13.779Z,96.88
2022-10-18T08:34:45.058Z,96.73
2022-10-18T08:37:16.385Z,96.58
2022-10-18T08:39:47.628Z,96.88
2022-10-18T08:42:52.570Z,96.64
2022-10-18T08:45:41.057Z,96.31
2022-10-18T08:48:24.085Z,96.24
2022-10-18T08:50:57.439Z,96.36
2022-10-18T08:53:55.286Z,96.41
2022-10-18T08:56:26.878Z,96.25
2022-10-18T08:58:58.156Z,95.93
2022-10-18T09:04:39.905Z,96.03
2022-10-18T09:07:43.781Z,96.22
2022-10-18T09:10:31.046Z,96.06
2022-10-18T09:13:45.769Z,96.27
2022-10-18T09:16:27.433Z,96.34
2022-10-18T09:19:27.114Z,96.32
2022-10-18T09:22:09.677Z,96.56
2022-10-18T09:24:49.714Z,96.15
2022-10-18T09:27:30.077Z,97.00
2022-10-18T09:30:25.087Z,97.36
2022-10-18T09:33:10.770Z,97.02
2022-10-18T09:36:01.347Z,97.28
2022-10-18T09:38:41.699Z,97.09
2022-10-18T09:41:37.624Z,96.78
2022-10-18T09:44:08.843Z,96.00
2022-10-18T09:46:45.349Z,96.12
2022-10-18T09:49:21.830Z,96.56
2022-10-18T09:51:54.122Z,96.79
2022-10-18T09:54:43.608Z,96.55
2022-10-18T09:57:26.155Z,96.69
2022-10-18T09:59:58.149Z,96.84
2022-10-18T10:02:29.479Z,96.50
2022-10-18T10:05:00.938Z,96.61
2022-10-18T10:07:35.414Z,96.28
2022-10-18T10:10:16.295Z,95.76
2022-10-18T10:12:48.834Z,95.55
2022-10-18T10:15:22.626Z,95.38
2022-10-18T10:18:00.606Z,95.43
2022-10-18T10:20:50.717Z,94.88
2022-10-18T10:23:29.008Z,94.76
2022-10-18T10:26:23.905Z,94.93
2022-10-18T10:28:55.298Z,94.72
2022-10-18T10:31:31.390Z,94.90
2022-10-18T10:34:14.644Z,94.51
2022-10-18T10:36:51.223Z,95.00
2022-10-18T10:39:24.556Z,94.62
2022-10-18T10:41:58.797Z,94.55
2022-10-18T10:44:34.056Z,93.91
2022-10-18T10:47:05.584Z,94.03
2022-10-18T10:49:47.400Z,93.59
2022-10-18T10:52:27.211Z,92.99
2022-10-18T10:55:06.110Z,93.18
2022-10-18T10:57:50.968Z,92.17
2022-10-18T11:00:44.172Z,91.91
2022-10-18T11:03:29.202Z,92.75
2022-10-18T11:06:01.810Z,92.26
2022-10-18T11:08:38.700Z,92.31
2022-10-18T11:11:28.509Z,92.00
2022-10-18T11:14:25.807Z,91.70
2022-10-18T11:17:22.369Z,92.08
2022-10-18T11:20:16.502Z,92.21
2022-10-18T11:23:16.658Z,92.04
2022-10-18T11:26:12.570Z,92.00
2022-10-18T11:29:05.477Z,91.24
2022-10-18T11:31:52.582Z,90.81
2022-10-18T11:34:49.301Z,89.15
2022-10-18T11:37:38.390Z,90.12
2022-10-18T11:40:20.798Z,89.67
2022-10-18T11:43:10.707Z,90.26
2022-10-18T11:45:50.603Z,90.67
2022-10-18T11:48:24.535Z,90.36
2022-10-18T11:51:19.966Z,88.72
2022-10-18T11:54:24.322Z,88.67
2022-10-18T11:57:27.927Z,88.64
2022-10-18T12:00:05.194Z,88.87
2022-10-18T12:03:12.961Z,88.38
2022-10-18T12:05:47.187Z,88.77
2022-10-18T12:08:25.451Z,88.66
2022-10-18T12:11:05.052Z,88.69
2022-10-18T12:13:51.142Z,87.71
2022-10-18T12:16:45.504Z,87.45
2022-10-18T12:19:25.420Z,87.46
2022-10-18T12:22:13.650Z,86.20
2022-10-18T12:24:44.913Z,85.91
2022-10-18T12:27:17.171Z,85.59
2022-10-18T12:30:14.144Z,86.15
2022-10-18T12:33:02.250Z,84.25
2022-10-18T12:35:51.065Z,84.74
2022-10-18T12:38:35.651Z,83.91
2022-10-18T12:41:07.140Z,83.83
2022-10-18T12:43:38.446Z,83.19
2022-10-18T12:46:13.762Z,81.89
2022-10-18T12:49:04.109Z,81.43
2022-10-18T12:51:35.390Z,81.25
2022-10-18T12:54:11.774Z,80.95
2022-10-18T12:56:43.765Z,80.58
2022-10-18T12:59:15.212Z,79.72
2022-10-18T13:01:55.469Z,79.27
2022-10-18T13:04:26.822Z,79.62
2022-10-18T13:06:58.202Z,79.87
2022-10-18T13:09:36.938Z,79.48
2022-10-18T13:12:11.009Z,78.97
2022-10-18T13:15:12.581Z,78.95
2022-10-18T13:17:54.716Z,78.58
2022-10-18T13:20:40.316Z,78.45
2022-10-18T13:23:39.376Z,77.86
2022-10-18T13:26:25.129Z,77.90
2022-10-18T13:29:41.150Z,77.10
2022-10-18T13:32:24.171Z,77.77
2022-10-18T13:34:55.790Z,77.81
2022-10-18T13:37:29.102Z,77.51
2022-10-18T13:40:24.247Z,77.17
2022-10-18T13:42:55.502Z,77.20
2022-10-18T13:45:32.957Z,76.66
2022-10-18T13:48:27.299Z,76.44
2022-10-18T13:51:22.356Z,76.51
2022-10-18T13:54:27.596Z,76.01
2022-10-18T13:57:15.929Z,76.58
2022-10-18T13:59:57.540Z,76.07
2022-10-18T14:02:52.991Z,76.27
2022-10-18T14:05:50.035Z,76.10
2022-10-18T14:08:29.557Z,76.06
2022-10-18T14:11:07.900Z,75.38
2022-10-18T14:13:51.190Z,75.22
2022-10-18T14:16:31.873Z,75.68
2022-10-18T14:19:24.954Z,75.32
2022-10-18T14:22:38.335Z,75.80
2022-10-18T14:25:22.610Z,75.93
2022-10-18T14:28:31.289Z,76.02
2022-10-18T14:31:18.100Z,76.07
2022-10-18T14:33:57.291Z,76.01
2022-10-18T14:36:37.622Z,75.80
2022-10-18T14:39:20.133Z,75.74
2022-10-18T14:41:53.684Z,76.21
2022-10-18T14:44:30.747Z,75.65
2022-10-18T14:47:23.531Z,75.07
2022-10-18T14:49:57.525Z,75.56
2022-10-18T14:52:35.437Z,75.03
2022-10-18T14:55:21.026Z,74.91
2022-10-18T14:57:52.556Z,74.39
2022-10-18T15:00:30.234Z,74.60
2022-10-18T15:03:03.893Z,74.82
2022-10-18T15:05:35.168Z,74.50
2022-10-18T15:08:06.621Z,74.61
2022-10-18T15:10:37.997Z,74.67
2022-10-18T15:13:12.832Z,74.66
2022-10-18T15:15:44.853Z,75.03
2022-10-18T15:18:25.110Z,75.05
2022-10-18T15:21:22.697Z,75.35
2022-10-18T15:23:57.740Z,75.59
2022-10-18T15:26:30.250Z,75.59
2022-10-18T15:29:04.485Z,75.84
2022-10-18T15:31:42.841Z,75.88
2022-10-18T15:34:23.200Z,76.15
2022-10-18T15:36:56.045Z,76.33
2022-10-18T15:39:31.793Z,76.02
2022-10-18T15:42:03.207Z,76.22
2022-10-18T15:44:54.868Z,75.86
2022-10-18T15:47:26.130Z,76.38
2022-10-18T15:49:58.666Z,76.04
2022-10-18T15:52:38.497Z,76.17
2022-10-18T15:55:29.016Z,76.21
2022-10-18T15:58:04.977Z,76.54
2022-10-18T16:00:36.242Z,76.48
2022-10-18T16:03:09.219Z,76.50
2022-10-18T16:05:40.719Z,77.24
2022-10-18T16:08:30.261Z,76.81
2022-10-18T16:11:01.632Z,77.13
2022-10-18T16:13:33.143Z,77.45
2022-10-18T16:16:04.613Z,77.14
2022-10-18T16:18:35.862Z,77.35
2022-10-18T16:21:16.458Z,77.23
2022-10-18T16:23:48.994Z,77.60
2022-10-18T16:26:21.338Z,77.57
2022-10-18T16:28:54.550Z,77.67
2022-10-18T16:31:29.548Z,77.57
2022-10-18T16:34:01.870Z,77.58
2022-10-18T16:36:33.481Z,77.59
2022-10-18T16:39:07.647Z,77.78
2022-10-18T16:41:39.012Z,77.83
2022-10-18T16:44:10.817Z,78.09
2022-10-18T16:46:42.621Z,78.09
2022-10-18T16:51:55.402Z,78.01
2022-10-18T16:54:26.665Z,78.05
2022-10-18T16:56:57.980Z,77.97
2022-10-18T16:59:30.967Z,78.42
2022-10-18T17:02:06.318Z,78.27
2022-10-18T17:04:37.641Z,78.64
2022-10-18T17:09:57.613Z,78.54
2022-10-18T17:12:28.934Z,78.45
2022-10-18T17:15:00.303Z,78.44
2022-10-18T17:17:32.214Z,78.76
2022-10-18T17:20:06.178Z,78.62
2022-10-18T17:22:37.510Z,78.49
2022-10-18T17:25:08.935Z,78.79
2022-10-18T17:27:40.254Z,78.67
2022-10-18T17:30:13.035Z,78.97
2022-10-18T17:32:44.615Z,78.95
2022-10-18T17:35:16.043Z,78.82
2022-10-18T17:37:48.889Z,78.73
2022-10-18T17:40:20.807Z,78.32
2022-10-18T17:42:53.305Z,78.24
2022-10-18T17:45:25.252Z,78.45
2022-10-18T17:47:56.500Z,78.56
2022-10-18T17:50:29.033Z,78.45
2022-10-18T17:53:00.457Z,78.37
2022-10-18T17:55:34.218Z,78.19
2022-10-18T17:58:05.945Z,78.16
2022-10-18T18:00:37.268Z,78.13
2022-10-18T18:03:08.775Z,78.38
2022-10-18T18:05:40.173Z,78.07
2022-10-18T18:08:11.517Z,78.41
2022-10-18T18:10:42.939Z,78.09
2022-10-18T18:13:16.309Z,78.00
2022-10-18T18:15:50.921Z,78.24
2022-10-18T18:18:22.317Z,78.27
2022-10-18T18:20:55.210Z,77.91
2022-10-18T18:23:26.710Z,78.37
2022-10-18T18:25:58.345Z,78.00
2022-10-18T18:28:29.615Z,78.50
2022-10-18T18:31:05.761Z,78.50
2022-10-18T18:33:40.620Z,78.14
2022-10-18T18:36:12.009Z,79.37
2022-10-18T18:38:43.852Z,78.59
2022-10-18T18:41:18.266Z,78.36
2022-10-18T18:43:57.365Z,78.57
2022-10-18T18:46:32.938Z,78.57
2022-10-18T18:49:05.826Z,78.67
2022-10-18T18:51:39.510Z,78.33
2022-10-18T18:54:13.758Z,78.28
2022-10-18T18:56:45.077Z,78.67
2022-10-18T18:59:17.094Z,78.27
2022-10-18T19:01:48.588Z,78.45
2022-10-18T19:04:19.999Z,78.45
2022-10-18T19:06:51.276Z,78.18
2022-10-18T19:09:22.895Z,78.21
2022-10-18T19:11:56.329Z,78.36
2022-10-18T19:14:28.908Z,78.69
2022-10-18T19:17:01.470Z,78.22
2022-10-18T19:19:32.784Z,78.52
2022-10-18T19:22:04.906Z,78.64
2022-10-18T19:24:36.750Z,78.70
2022-10-18T19:27:12.330Z,78.75
2022-10-18T19:29:45.777Z,78.91
2022-10-18T19:32:18.566Z,79.48
2022-10-18T19:34:49.880Z,79.06
2022-10-18T19:37:21.265Z,79.03
2022-10-18T19:39:52.515Z,78.94
2022-10-18T19:42:27.479Z,78.78
2022-10-18T19:45:02.903Z,79.23
2022-10-18T19:47:34.201Z,79.30
2022-10-18T19:50:05.866Z,79.34
2022-10-18T19:52:37.201Z,79.32
2022-10-18T19:55:08.553Z,78.93
2022-10-18T19:57:39.814Z,78.84
2022-10-18T20:00:12.521Z,79.46
2022-10-18T20:02:46.335Z,79.18
2022-10-18T20:05:17.613Z,78.91
2022-10-18T20:07:48.922Z,79.44
2022-10-18T20:10:20.173Z,78.96
2022-10-18T20:12:51.423Z,79.00
2022-10-18T20:15:22.757Z,78.96
2022-10-18T20:17:55.813Z,79.04
2022-10-18T20:20:27.157Z,78.76
2022-10-18T20:22:58.410Z,78.98
2022-10-18T20:25:29.823Z,78.91
2022-10-18T20:28:01.125Z,78.87
2022-10-18T20:30:32.849Z,78.81
2022-10-18T20:33:04.790Z,78.89
2022-10-18T20:35:36.098Z,78.65
2022-10-18T20:38:07.350Z,78.69
2022-10-18T20:40:38.891Z,78.81
2022-10-18T20:43:10.235Z,78.96
2022-10-18T20:45:41.492Z,78.98
2022-10-18T20:48:12.748Z,78.72
2022-10-18T20:50:44.178Z,79.04
2022-10-18T20:53:15.558Z,78.77
2022-10-18T20:55:46.824Z,79.02
2022-10-18T20:58:18.282Z,78.84
2022-10-18T21:00:49.534Z,78.93
2022-10-18T21:03:20.842Z,79.15
2022-10-18T21:05:52.151Z,78.96
2022-10-18T21:08:23.524Z,79.33
2022-10-18T21:10:55.647Z,79.42
2022-10-18T21:13:26.963Z,79.30
2022-10-18T21:15:59.516Z,79.70
2022-10-18T21:18:32.824Z,79.86
2022-10-18T21:21:18.544Z,80.01
2022-10-18T21:23:51.270Z,80.07
2022-10-18T21:26:25.578Z,80.39
2022-10-18T21:28:58.715Z,80.75
2022-10-18T21:31:32.085Z,80.81
2022-10-18T21:34:06.226Z,81.26
2022-10-18T21:36:37.620Z,81.70
2022-10-18T21:39:13.517Z,81.40
2022-10-18T21:41:45.330Z,81.67
2022-10-18T21:44:17.288Z,81.78
2022-10-18T21:46:48.780Z,81.90
2022-10-18T21:49:20.236Z,82.01
2022-10-18T21:51:51.590Z,81.87
2022-10-18T21:54:22.820Z,81.63
2022-10-18T21:56:54.261Z,82.50
2022-10-18T21:59:25.513Z,82.50
2022-10-18T22:01:57.155Z,82.59
2022-10-18T22:04:28.398Z,82.61
2022-10-18T22:06:59.748Z,82.58
2022-10-18T22:09:31.089Z,82.85
2022-10-18T22:12:02.741Z,82.97
2022-10-18T22:14:34.438Z,83.18
2022-10-18T22:17:05.889Z,82.98
2022-10-18T22:19:37.231Z,83.26
2022-10-18T22:22:08.935Z,82.94
2022-10-18T22:24:40.231Z,83.37
2022-10-18T22:27:11.621Z,83.36
2022-10-18T22:29:42.880Z,82.95
2022-10-18T22:32:14.130Z,83.42
2022-10-18T22:34:45.804Z,83.60
2022-10-18T22:37:17.056Z,83.65
2022-10-18T22:39:48.306Z,83.98
2022-10-18T22:42:19.538Z,83.39
2022-10-18T22:44:50.842Z,83.64
2022-10-18T22:47:22.218Z,83.76
2022-10-18T22:49:53.520Z,83.64
2022-10-18T22:52:24.790Z,83.71
2022-10-18T22:54:56.052Z,83.58
2022-10-18T22:57:29.129Z,83.86
2022-10-18T23:00:00.376Z,84.16
2022-10-18T23:02:31.923Z,83.95
2022-10-18T23:05:03.694Z,83.85
2022-10-18T23:07:35.050Z,83.67
2022-10-18T23:10:06.526Z,83.80
2022-10-18T23:12:37.809Z,84.27
2022-10-18T23:15:09.564Z,84.30
2022-10-18T23:17:40.860Z,84.60
2022-10-18T23:20:12.514Z,84.82
2022-10-18T23:22:43.811Z,84.78
2022-10-18T23:25:15.413Z,84.93
2022-10-18T23:27:46.826Z,85.06
2022-10-18T23:30:18.210Z,85.29
2022-10-18T23:32:49.497Z,85.33
2022-10-18T23:35:20.775Z,85.19
2022-10-18T23:37:52.613Z,85.29
2022-10-18T23:40:23.941Z,85.24
2022-10-18T23:42:55.194Z,85.20
2022-10-18T23:45:26.465Z,85.20
2022-10-18T23:47:57.815Z,85.43
2022-10-18T23:50:29.065Z,85.31
2022-10-18T23:53:00.317Z,85.65
2022-10-18T23:55:31.650Z,85.65
2022-10-18T23:58:02.976Z,85.43
